Time;durP1;ratioP1;P1;durP2;ratioP2;P2;SDS_P1;SDS_P2;PMS_P1;PMS_P2;Temp;Humidity;BMP_temperature;BMP_pressure;BME280_temperature;BME280_humidity;BME280_pressure;Samples;Min_cycle;Max_cycle;Signal;HPM_P1;HPM_P2
2021/05/19 00:02:23;;;;;;;2.60;1.95;;;9.10;43.20;;;;;;5060699;28;20520;-65
2021/05/19 00:05:14;;;;;;;4.72;2.03;;;9.10;42.90;;;;;;5064070;28;20041;-65
2021/05/19 00:08:02;;;;;;;2.30;1.80;;;9.10;41.40;;;;;;5059629;28;20123;-64
2021/05/19 00:10:51;;;;;;;4.68;2.17;;;9.00;41.70;;;;;;5059486;28;20052;-63
2021/05/19 00:13:39;;;;;;;2.90;1.92;;;9.10;42.50;;;;;;5062248;28;20119;-65
2021/05/19 00:16:30;;;;;;;6.15;2.53;;;9.10;42.60;;;;;;5059460;28;20056;-65
2021/05/19 00:19:21;;;;;;;2.83;2.28;;;9.10;42.60;;;;;;5048983;28;20153;-65
2021/05/19 00:22:09;;;;;;;3.40;2.65;;;9.20;43.30;;;;;;5060726;28;20135;-65
2021/05/19 00:24:57;;;;;;;2.85;2.25;;;9.30;42.90;;;;;;5059989;28;20524;-64
2021/05/19 00:27:44;;;;;;;4.00;2.15;;;9.40;42.60;;;;;;5053993;28;20696;-65
2021/05/19 00:30:35;;;;;;;3.20;2.05;;;9.30;41.00;;;;;;5061827;28;20409;-64
2021/05/19 00:33:24;;;;;;;2.92;2.38;;;9.40;41.00;;;;;;5059957;28;20067;-65
2021/05/19 00:36:13;;;;;;;2.95;2.20;;;9.40;41.70;;;;;;5060160;28;20041;-65
2021/05/19 00:39:01;;;;;;;2.85;2.30;;;9.50;40.80;;;;;;5044484;28;20442;-65
2021/05/19 00:41:52;;;;;;;3.20;2.47;;;9.50;40.50;;;;;;5048166;28;20037;-64
2021/05/19 00:44:41;;;;;;;4.03;2.13;;;9.50;40.30;;;;;;5034632;28;20037;-65
2021/05/19 00:47:33;;;;;;;4.00;2.38;;;9.60;39.40;;;;;;5058862;28;20056;-64
2021/05/19 00:50:23;;;;;;;3.03;1.98;;;9.60;39.90;;;;;;5058602;28;20052;-64
2021/05/19 00:53:12;;;;;;;4.95;2.35;;;9.60;39.30;;;;;;5047005;28;20044;-64
2021/05/19 00:56:01;;;;;;;2.95;2.17;;;9.50;38.60;;;;;;5059293;28;20045;-65
2021/05/19 00:58:51;;;;;;;2.30;1.75;;;9.60;39.30;;;;;;5064909;28;20055;-65
2021/05/19 01:01:40;;;;;;;3.67;2.15;;;9.70;38.60;;;;;;5048499;28;20156;-64
2021/05/19 01:04:32;;;;;;;3.95;2.40;;;9.70;38.20;;;;;;5045216;28;20044;-63
2021/05/19 01:07:34;;;;;;;2.63;2.03;;;9.70;37.70;;;;;;5039580;28;20048;-65
2021/05/19 01:10:24;;;;;;;4.18;2.33;;;9.70;37.60;;;;;;5058990;28;20039;-64
2021/05/19 01:13:12;;;;;;;5.00;2.25;;;9.60;37.70;;;;;;5063491;28;20509;-64
2021/05/19 01:16:00;;;;;;;4.10;1.88;;;9.70;38.40;;;;;;5060505;28;20063;-65
2021/05/19 01:18:49;;;;;;;2.45;2.08;;;9.70;37.70;;;;;;5056237;28;20036;-65
2021/05/19 01:21:43;;;;;;;3.50;2.35;;;9.70;36.50;;;;;;5059564;28;20523;-64
2021/05/19 01:24:32;;;;;;;3.97;2.20;;;9.70;36.60;;;;;;5063036;28;20040;-64
2021/05/19 01:27:21;;;;;;;3.22;2.17;;;9.70;35.80;;;;;;5056223;28;20049;-65
2021/05/19 01:30:16;;;;;;;2.60;2.22;;;9.70;36.40;;;;;;5047355;28;20523;-65
2021/05/19 01:33:05;;;;;;;6.05;2.38;;;9.70;35.60;;;;;;5032143;28;20047;-64
2021/05/19 01:35:55;;;;;;;4.28;2.30;;;9.70;35.00;;;;;;5045276;28;20049;-64
2021/05/19 01:38:44;;;;;;;8.52;2.80;;;9.70;34.80;;;;;;5059153;28;20370;-65
2021/05/19 01:41:34;;;;;;;4.30;2.50;;;9.70;35.70;;;;;;5064592;28;20061;-65
2021/05/19 01:44:22;;;;;;;3.90;2.35;;;9.60;35.40;;;;;;5058580;28;20512;-64
2021/05/19 01:47:41;;;;;;;5.95;2.30;;;9.50;34.60;;;;;;5055182;28;20500;-65
2021/05/19 01:50:32;;;;;;;7.97;2.83;;;9.60;34.90;;;;;;5044962;28;20520;-65
2021/05/19 01:53:28;;;;;;;3.72;2.63;;;9.50;36.00;;;;;;5062365;28;20409;-63
2021/05/19 01:56:16;;;;;;;4.15;2.70;;;9.50;37.60;;;;;;5055667;28;20126;-65
2021/05/19 01:59:09;;;;;;;3.60;2.70;;;9.60;37.70;;;;;;5058276;28;20129;-63
2021/05/19 02:01:58;;;;;;;4.00;2.47;;;9.60;37.70;;;;;;5046881;28;20586;-64
2021/05/19 02:04:51;;;;;;;3.67;2.50;;;9.60;37.70;;;;;;5054573;28;20590;-64
2021/05/19 02:07:40;;;;;;;6.75;2.80;;;9.60;37.70;;;;;;5054436;28;20044;-64
2021/05/19 02:10:29;;;;;;;3.15;2.67;;;9.60;37.60;;;;;;5048736;28;20053;-64
2021/05/19 02:13:19;;;;;;;4.88;2.60;;;9.60;37.70;;;;;;5047066;28;20053;-65
2021/05/19 02:16:11;;;;;;;3.90;3.05;;;9.60;37.90;;;;;;5040129;28;20057;-65
2021/05/19 02:19:00;;;;;;;4.38;2.75;;;9.60;38.90;;;;;;5041180;28;20138;-64
2021/05/19 02:21:50;;;;;;;3.90;3.00;;;9.60;37.70;;;;;;5046963;28;20447;-64
2021/05/19 02:24:39;;;;;;;3.53;2.88;;;9.60;37.60;;;;;;5048327;28;20496;-64
2021/05/19 02:27:27;;;;;;;4.05;3.10;;;9.60;38.70;;;;;;5041195;28;20471;-62
2021/05/19 02:30:19;;;;;;;5.32;2.95;;;9.60;38.90;;;;;;5045826;28;20411;-64
2021/05/19 02:33:13;;;;;;;4.85;3.05;;;9.40;40.60;;;;;;5044146;28;20064;-64
2021/05/19 02:36:01;;;;;;;7.50;2.65;;;9.40;41.50;;;;;;5041199;28;20045;-64
2021/05/19 02:38:50;;;;;;;3.92;2.95;;;9.40;41.10;;;;;;5045808;28;20527;-64
2021/05/19 02:41:39;;;;;;;4.43;3.03;;;9.40;41.00;;;;;;5047584;28;20052;-64
2021/05/19 02:44:28;;;;;;;5.40;2.95;;;9.40;40.80;;;;;;5053943;28;20509;-64
2021/05/19 02:47:16;;;;;;;4.57;3.00;;;9.30;41.10;;;;;;5043214;28;20581;-64
2021/05/19 02:50:06;;;;;;;3.50;2.63;;;9.40;40.50;;;;;;5062347;28;20045;-64
2021/05/19 02:52:54;;;;;;;6.15;3.40;;;9.30;40.80;;;;;;5057644;28;20520;-65
2021/05/19 02:55:43;;;;;;;5.40;3.20;;;9.30;40.50;;;;;;5054597;28;20088;-65
2021/05/19 02:58:37;;;;;;;3.00;2.70;;;9.30;40.60;;;;;;5055871;28;20203;-64
2021/05/19 03:01:25;;;;;;;5.45;3.00;;;9.30;40.00;;;;;;5060227;28;20740;-64
2021/05/19 03:04:13;;;;;;;4.32;3.05;;;9.30;39.30;;;;;;5062954;28;20049;-64
2021/05/19 03:07:03;;;;;;;5.15;3.92;;;9.40;40.30;;;;;;5054058;28;20083;-65
2021/05/19 03:09:51;;;;;;;4.07;2.95;;;9.40;39.60;;;;;;5058275;28;20072;-64
2021/05/19 03:12:39;;;;;;;4.10;3.03;;;9.40;39.10;;;;;;5058894;28;20543;-64
2021/05/19 03:15:27;;;;;;;5.80;3.33;;;9.40;40.20;;;;;;5060663;28;20515;-65
2021/05/19 03:18:15;;;;;;;5.55;3.40;;;9.50;41.30;;;;;;5056375;28;20048;-64
2021/05/19 03:21:03;;;;;;;4.50;3.10;;;9.50;39.70;;;;;;5058703;28;20049;-64
2021/05/19 03:23:52;;;;;;;6.00;3.88;;;9.50;39.10;;;;;;5042585;28;20056;-63
2021/05/19 03:26:40;;;;;;;3.42;3.13;;;9.40;40.00;;;;;;5059771;28;20165;-65
2021/05/19 03:29:28;;;;;;;5.88;3.25;;;9.50;40.70;;;;;;5057273;28;20040;-65
2021/05/19 03:32:16;;;;;;;4.50;3.38;;;9.40;38.40;;;;;;5060539;28;20056;-65
2021/05/19 03:35:07;;;;;;;4.82;3.28;;;9.40;37.50;;;;;;5054038;28;20158;-65
2021/05/19 03:37:55;;;;;;;5.00;3.90;;;9.40;37.50;;;;;;5052604;28;20119;-64
2021/05/19 03:40:44;;;;;;;5.57;3.90;;;9.40;37.30;;;;;;5063027;28;20516;-64
2021/05/19 03:43:33;;;;;;;6.30;4.18;;;9.50;35.90;;;;;;5057426;28;20126;-64
2021/05/19 03:46:21;;;;;;;8.48;3.83;;;9.50;36.40;;;;;;5036631;28;20220;-65
2021/05/19 03:49:09;;;;;;;5.00;3.65;;;9.50;34.10;;;;;;5056321;28;20512;-65
2021/05/19 03:51:57;;;;;;;4.78;3.55;;;9.50;33.50;;;;;;5060080;28;20068;-65
2021/05/19 03:54:45;;;;;;;4.20;3.40;;;9.40;33.80;;;;;;5063653;28;20105;-65
2021/05/19 03:57:34;;;;;;;5.93;3.47;;;9.50;34.80;;;;;;5055468;28;20060;-64
2021/05/19 04:00:24;;;;;;;4.75;3.50;;;9.50;34.00;;;;;;5056608;28;20062;-64
2021/05/19 04:03:12;;;;;;;4.30;3.05;;;9.50;33.40;;;;;;5055734;28;20087;-64
2021/05/19 04:06:01;;;;;;;3.92;3.15;;;9.40;34.30;;;;;;5057646;28;20489;-64
2021/05/19 04:08:49;;;;;;;5.45;3.78;;;9.50;35.60;;;;;;5061379;28;20259;-65
2021/05/19 04:11:37;;;;;;;4.50;4.07;;;9.40;34.60;;;;;;5054279;28;20405;-65
2021/05/19 04:14:25;;;;;;;4.40;3.90;;;9.40;33.20;;;;;;5053881;28;20586;-65
2021/05/19 04:17:13;;;;;;;5.53;4.00;;;9.40;35.00;;;;;;5052622;28;20092;-66
2021/05/19 04:20:01;;;;;;;7.00;4.50;;;9.40;34.70;;;;;;5048263;28;20041;-65
2021/05/19 04:22:49;;;;;;;6.05;3.72;;;9.50;34.30;;;;;;5060390;28;20052;-65
2021/05/19 04:25:38;;;;;;;8.45;3.60;;;9.50;34.20;;;;;;5054244;28;20053;-65
2021/05/19 04:28:26;;;;;;;4.20;3.60;;;9.50;33.30;;;;;;5053877;28;20057;-65
2021/05/19 04:31:14;;;;;;;4.93;3.47;;;9.30;33.60;;;;;;5063063;28;20470;-64
2021/05/19 04:34:03;;;;;;;5.97;4.00;;;9.30;35.30;;;;;;5062572;28;20519;-64
2021/05/19 04:36:57;;;;;;;6.88;4.38;;;9.40;35.70;;;;;;5052739;28;20044;-65
2021/05/19 04:39:45;;;;;;;3.83;3.42;;;9.40;33.80;;;;;;5058157;28;20065;-65
2021/05/19 04:42:34;;;;;;;4.30;3.50;;;9.30;34.10;;;;;;5061812;28;20111;-64
2021/05/19 04:45:22;;;;;;;3.90;3.53;;;9.30;34.40;;;;;;5063636;28;20703;-64
2021/05/19 04:48:11;;;;;;;10.30;4.28;;;9.40;34.70;;;;;;5032366;28;20113;-64
2021/05/19 04:50:59;;;;;;;7.72;4.68;;;9.50;34.50;;;;;;5045959;28;20090;-65
2021/05/19 04:53:47;;;;;;;12.80;5.03;;;9.60;33.80;;;;;;5061292;28;20135;-65
2021/05/19 04:56:35;;;;;;;7.28;4.38;;;9.60;32.60;;;;;;5060160;28;20180;-64
2021/05/19 04:59:23;;;;;;;7.82;5.05;;;9.60;32.90;;;;;;5061352;28;20045;-65
2021/05/19 05:02:11;;;;;;;7.78;4.38;;;9.60;33.40;;;;;;5054898;28;20053;-64
2021/05/19 05:05:00;;;;;;;8.80;5.10;;;9.60;32.50;;;;;;5044690;28;20906;-64
2021/05/19 05:07:47;;;;;;;6.28;4.22;;;9.60;33.30;;;;;;5059800;28;20047;-65
2021/05/19 05:10:35;;;;;;;10.45;4.32;;;9.80;32.50;;;;;;5061959;28;20048;-64
2021/05/19 05:13:23;;;;;;;5.20;4.55;;;9.80;30.50;;;;;;5062390;28;20052;-64
2021/05/19 05:16:12;;;;;;;6.65;5.05;;;9.80;29.90;;;;;;5059185;28;20057;-64
2021/05/19 05:19:00;;;;;;;6.80;4.35;;;9.90;30.30;;;;;;5059309;28;20424;-64
2021/05/19 05:21:49;;;;;;;6.10;4.68;;;10.00;27.80;;;;;;5063553;28;20049;-64
2021/05/19 05:24:41;;;;;;;8.80;4.63;;;10.00;28.30;;;;;;5063057;28;20110;-65
2021/05/19 05:27:29;;;;;;;5.45;4.78;;;10.20;27.90;;;;;;5053057;28;20415;-65
2021/05/19 05:30:18;;;;;;;7.13;4.38;;;10.00;27.70;;;;;;5056562;28;20057;-65
2021/05/19 05:33:07;;;;;;;5.03;4.47;;;10.10;28.10;;;;;;5061511;28;20492;-65
2021/05/19 05:35:55;;;;;;;7.15;4.65;;;10.10;27.70;;;;;;5059696;28;20048;-65
2021/05/19 05:38:44;;;;;;;10.57;4.68;;;10.10;25.60;;;;;;5056749;28;20049;-65
2021/05/19 05:41:32;;;;;;;6.43;4.45;;;10.10;25.60;;;;;;5057292;28;20099;-64
2021/05/19 05:44:19;;;;;;;6.43;4.68;;;10.40;26.20;;;;;;5057784;28;20163;-65
2021/05/19 05:47:07;;;;;;;7.13;4.70;;;10.50;23.50;;;;;;5057974;28;20055;-64
2021/05/19 05:49:57;;;;;;;7.80;4.65;;;10.60;20.80;;;;;;5062718;28;20049;-64
2021/05/19 05:52:46;;;;;;;7.93;4.80;;;11.20;19.60;;;;;;5057837;28;20052;-64
2021/05/19 05:55:35;;;;;;;6.15;4.47;;;11.10;19.30;;;;;;5054068;28;20505;-64
2021/05/19 05:58:23;;;;;;;6.70;5.15;;;11.10;18.20;;;;;;5043662;28;20044;-65
2021/05/19 06:01:12;;;;;;;5.30;4.68;;;11.00;19.30;;;;;;5062451;28;20041;-65
2021/05/19 06:04:00;;;;;;;6.05;4.82;;;10.90;20.50;;;;;;5055807;28;20073;-64
2021/05/19 06:06:48;;;;;;;6.40;5.13;;;10.90;19.20;;;;;;5053102;28;20040;-65
2021/05/19 06:09:36;;;;;;;6.55;4.72;;;10.80;19.90;;;;;;5041359;28;20111;-64
2021/05/19 06:12:25;;;;;;;7.53;4.60;;;11.40;18.10;;;;;;5031085;28;20087;-64
2021/05/19 06:15:13;;;;;;;4.63;4.10;;;13.60;4.40;;;;;;5061712;28;20148;-64
2021/05/19 06:18:02;;;;;;;5.18;3.85;;;14.40;1.00;;;;;;5054630;28;20049;-64
2021/05/19 06:20:50;;;;;;;4.68;3.65;;;15.20;1.00;;;;;;5055175;28;20076;-64
2021/05/19 06:23:38;;;;;;;4.85;4.00;;;13.70;1.00;;;;;;5057167;28;20052;-64
2021/05/19 06:26:26;;;;;;;5.25;4.18;;;13.40;1.00;;;;;;5056356;28;20055;-65
2021/05/19 06:29:15;;;;;;;5.88;4.15;;;12.60;4.10;;;;;;5044333;28;20404;-65
2021/05/19 06:32:04;;;;;;;4.95;3.80;;;12.50;4.80;;;;;;5056424;28;20136;-65
2021/05/19 06:34:53;;;;;;;6.45;3.75;;;12.00;7.10;;;;;;5054732;28;20044;-65
2021/05/19 06:37:41;;;;;;;5.22;3.60;;;11.90;9.10;;;;;;5049094;28;20044;-65
2021/05/19 06:40:30;;;;;;;5.70;4.03;;;11.60;11.20;;;;;;5058884;28;20072;-65
2021/05/19 06:43:18;;;;;;;5.45;4.10;;;11.50;12.70;;;;;;5057120;28;20041;-63
2021/05/19 06:46:07;;;;;;;8.70;5.70;;;11.70;12.60;;;;;;5051537;28;20334;-64
2021/05/19 06:49:02;;;;;;;6.25;4.47;;;11.60;12.50;;;;;;5052101;28;20037;-64
2021/05/19 06:51:50;;;;;;;4.35;3.33;;;12.10;11.20;;;;;;5059221;28;20153;-65
2021/05/19 06:54:38;;;;;;;5.47;3.17;;;12.00;10.40;;;;;;5058935;28;20055;-65
2021/05/19 06:57:26;;;;;;;5.07;3.35;;;12.10;10.70;;;;;;5053801;28;20048;-64
2021/05/19 07:00:14;;;;;;;5.80;3.53;;;12.00;8.50;;;;;;5038469;28;20183;-65
2021/05/19 07:03:07;;;;;;;5.50;3.47;;;12.10;6.90;;;;;;5059766;28;20056;-65
2021/05/19 07:05:55;;;;;;;4.68;3.65;;;12.60;8.00;;;;;;5058904;28;20497;-65
2021/05/19 07:08:43;;;;;;;4.43;3.13;;;12.10;7.60;;;;;;5054521;28;20053;-65
2021/05/19 07:11:31;;;;;;;6.57;3.85;;;12.50;7.10;;;;;;5045193;28;20372;-65
2021/05/19 07:14:21;;;;;;;4.55;3.05;;;12.20;5.50;;;;;;5057792;28;20056;-64
2021/05/19 07:17:08;;;;;;;5.10;2.83;;;12.40;6.30;;;;;;5042567;28;20065;-64
2021/05/19 07:19:57;;;;;;;4.57;3.05;;;11.90;6.80;;;;;;5057902;28;20044;-64
2021/05/19 07:22:45;;;;;;;3.90;2.88;;;12.00;5.10;;;;;;5044466;28;20059;-64
2021/05/19 07:25:33;;;;;;;3.72;2.65;;;12.30;6.30;;;;;;5056370;28;20129;-64
2021/05/19 07:28:21;;;;;;;5.95;2.67;;;12.90;4.20;;;;;;5054578;28;20199;-64
2021/05/19 07:31:09;;;;;;;3.95;2.75;;;12.50;2.50;;;;;;5061149;28;20194;-65
2021/05/19 07:33:57;;;;;;;3.13;2.60;;;12.60;3.30;;;;;;5043614;28;20044;-65
2021/05/19 07:36:46;;;;;;;5.45;3.83;;;12.50;4.40;;;;;;5052267;28;20386;-65
2021/05/19 07:39:35;;;;;;;5.18;3.40;;;12.60;3.10;;;;;;5041331;28;20060;-65
2021/05/19 07:42:22;;;;;;;4.47;3.00;;;12.00;5.40;;;;;;5060730;28;20083;-64
2021/05/19 07:45:12;;;;;;;5.25;3.38;;;12.30;5.20;;;;;;5057873;28;20057;-65
2021/05/19 07:47:59;;;;;;;4.57;3.10;;;12.20;3.40;;;;;;5052833;28;20040;-65
2021/05/19 07:50:46;;;;;;;4.13;2.92;;;12.50;4.40;;;;;;5054449;28;20041;-65
2021/05/19 07:53:34;;;;;;;5.28;3.28;;;13.00;4.90;;;;;;5059517;28;20052;-65
2021/05/19 07:56:24;;;;;;;5.55;3.55;;;13.30;1.00;;;;;;5056653;28;20690;-64
2021/05/19 07:59:12;;;;;;;6.93;2.92;;;13.00;2.70;;;;;;5057509;28;20060;-64
2021/05/19 08:02:03;;;;;;;5.50;2.97;;;12.90;5.20;;;;;;5073032;28;20538;-65
2021/05/19 08:04:50;;;;;;;5.60;2.97;;;13.00;4.60;;;;;;5060633;28;20069;-65
2021/05/19 08:07:37;;;;;;;4.82;3.13;;;13.50;1.00;;;;;;5061596;28;20061;-64
2021/05/19 08:10:25;;;;;;;4.28;3.30;;;13.70;1.60;;;;;;5063321;28;20134;-63
2021/05/19 08:13:12;;;;;;;7.82;3.03;;;13.00;2.30;;;;;;5061310;28;20048;-65
2021/05/19 08:15:58;;;;;;;9.85;3.03;;;13.20;2.90;;;;;;5056734;28;20441;-65
2021/05/19 08:18:47;;;;;;;7.85;3.22;;;12.40;4.00;;;;;;5061381;28;20075;-64
2021/05/19 08:21:35;;;;;;;8.25;3.83;;;12.70;3.10;;;;;;5063836;28;20089;-64
2021/05/19 08:24:24;;;;;;;6.20;3.72;;;12.90;3.50;;;;;;5061001;28;20057;-64
2021/05/19 08:27:12;;;;;;;4.20;3.05;;;12.10;4.20;;;;;;5055981;28;20940;-64
2021/05/19 08:30:09;;;;;;;4.13;2.92;;;12.30;5.60;;;;;;5059515;28;20087;-65
2021/05/19 08:32:57;;;;;;;5.68;3.00;;;12.40;4.00;;;;;;5059290;28;20140;-65
2021/05/19 08:35:45;;;;;;;3.55;2.80;;;12.50;3.10;;;;;;5059250;28;20131;-65
2021/05/19 08:38:35;;;;;;;5.25;2.97;;;12.20;1.90;;;;;;5040735;28;20523;-65
2021/05/19 08:41:23;;;;;;;3.35;2.70;;;12.60;2.90;;;;;;5061728;28;20040;-64
2021/05/19 08:44:12;;;;;;;4.75;3.17;;;12.90;2.30;;;;;;5063105;28;20063;-64
2021/05/19 08:46:59;;;;;;;5.28;3.33;;;13.10;2.20;;;;;;5058863;28;20040;-64
2021/05/19 08:49:48;;;;;;;4.57;2.83;;;13.10;1.00;;;;;;5048822;28;20535;-65
2021/05/19 08:52:38;;;;;;;5.28;3.05;;;13.70;1.00;;;;;;5057931;28;20044;-65
2021/05/19 08:55:27;;;;;;;5.22;2.80;;;13.10;1.00;;;;;;5046793;28;20535;-64
2021/05/19 08:58:15;;;;;;;7.20;3.47;;;13.20;1.30;;;;;;5060418;28;20057;-64
2021/05/19 09:01:04;;;;;;;4.57;3.10;;;13.60;1.00;;;;;;5059709;28;20131;-64
2021/05/19 09:04:03;;;;;;;5.88;2.95;;;14.10;1.00;;;;;;5058110;28;20053;-64
2021/05/19 09:06:55;;;;;;;8.80;3.40;;;13.00;1.00;;;;;;5050564;28;20049;-65
2021/05/19 09:09:43;;;;;;;8.82;4.05;;;13.10;1.30;;;;;;5043382;28;20101;-64
2021/05/19 09:12:34;;;;;;;4.85;2.90;;;12.60;3.50;;;;;;5064993;28;20183;-64
2021/05/19 09:15:23;;;;;;;6.00;3.58;;;13.10;1.90;;;;;;5057245;28;20484;-64
2021/05/19 09:18:12;;;;;;;4.97;2.80;;;13.20;1.00;;;;;;5046021;28;20156;-64
2021/05/19 09:21:04;;;;;;;4.07;2.45;;;12.80;1.00;;;;;;5061463;28;20044;-65
2021/05/19 09:23:58;;;;;;;6.35;2.60;;;13.60;1.00;;;;;;5062196;28;20043;-67
2021/05/19 09:26:54;;;;;;;4.05;1.77;;;14.10;1.00;;;;;;5042684;28;20114;-65
2021/05/19 09:29:46;;;;;;;4.80;2.00;;;14.10;1.00;;;;;;5058280;28;20569;-65
2021/05/19 09:32:37;;;;;;;3.35;1.77;;;15.10;1.00;;;;;;5054551;28;20116;-65
2021/05/19 09:35:25;;;;;;;3.65;1.60;;;14.50;1.00;;;;;;5059316;28;20144;-65
2021/05/19 09:38:27;;;;;;;4.57;1.80;;;14.50;1.00;;;;;;5056796;28;20421;-64
2021/05/19 09:41:21;;;;;;;3.35;1.98;;;13.90;1.00;;;;;;5060779;28;20106;-65
2021/05/19 09:44:11;;;;;;;2.90;1.47;;;14.70;1.00;;;;;;5057865;28;20045;-65
2021/05/19 09:46:59;;;;;;;2.33;1.20;;;15.30;1.00;;;;;;5055259;28;20053;-65
2021/05/19 09:49:56;;;;;;;2.33;1.30;;;15.10;1.00;;;;;;5062818;28;20058;-65
2021/05/19 09:53:05;;;;;;;2.08;1.30;;;14.90;1.00;;;;;;5047463;28;20123;-65
2021/05/19 09:56:05;;;;;;;3.47;0.90;;;15.30;1.00;;;;;;5054514;28;20052;-64
2021/05/19 09:58:53;;;;;;;3.83;1.30;;;15.50;1.00;;;;;;5056371;28;20143;-65
2021/05/19 10:01:42;;;;;;;2.05;1.10;;;15.30;1.00;;;;;;5055227;28;20044;-66
2021/05/19 10:04:33;;;;;;;2.47;1.08;;;14.10;1.00;;;;;;5060760;28;20290;-65
2021/05/19 10:07:22;;;;;;;1.88;0.77;;;14.90;1.00;;;;;;5054470;28;20080;-64
2021/05/19 10:10:12;;;;;;;2.17;0.80;;;14.00;1.00;;;;;;5049797;28;20521;-64
2021/05/19 10:13:00;;;;;;;1.73;0.98;;;14.50;1.00;;;;;;5056726;28;20044;-65
2021/05/19 10:15:48;;;;;;;6.60;1.40;;;15.00;1.00;;;;;;5057243;28;20052;-65
2021/05/19 10:18:43;;;;;;;4.40;1.48;;;15.30;1.00;;;;;;5056864;28;20045;-65
2021/05/19 10:21:34;;;;;;;2.13;1.10;;;15.40;1.00;;;;;;5058654;28;20103;-64
2021/05/19 10:24:49;;;;;;;2.03;1.20;;;15.60;1.00;;;;;;5061263;28;20045;-65
2021/05/19 10:27:49;;;;;;;2.03;1.07;;;15.50;1.00;;;;;;5050659;28;20056;-65
2021/05/19 10:30:42;;;;;;;2.75;1.20;;;14.60;1.00;;;;;;5044719;28;20484;-65
2021/05/19 10:33:51;;;;;;;3.45;1.20;;;14.70;1.00;;;;;;5056893;28;20044;-65
2021/05/19 10:36:45;;;;;;;2.40;0.85;;;14.40;1.00;;;;;;5057102;28;20503;-66
2021/05/19 10:39:33;;;;;;;3.05;1.00;;;14.30;1.00;;;;;;5056386;28;20045;-65
2021/05/19 10:42:33;;;;;;;3.38;0.90;;;14.80;1.00;;;;;;5057384;28;20044;-65
2021/05/19 10:45:23;;;;;;;3.72;1.05;;;14.80;1.00;;;;;;5053515;28;20413;-64
2021/05/19 10:48:34;;;;;;;2.83;0.90;;;15.40;1.00;;;;;;5054116;28;20059;-65
2021/05/19 10:51:36;;;;;;;3.28;1.17;;;15.90;1.00;;;;;;5061625;28;20649;-65
2021/05/19 10:57:33;;;;;;;1.42;1.02;;;15.40;1.00;;;;;;5057251;28;20144;-66
2021/05/19 11:00:25;;;;;;;2.70;1.17;;;15.80;1.00;;;;;;5058898;28;20532;-65
2021/05/19 11:03:16;;;;;;;1.55;0.90;;;15.90;1.00;;;;;;5060728;28;20048;-65
2021/05/19 11:06:08;;;;;;;3.08;1.20;;;15.90;1.00;;;;;;5045769;28;20091;-65
2021/05/19 11:09:22;;;;;;;1.50;1.00;;;15.30;1.00;;;;;;5057548;28;20045;-65
2021/05/19 11:12:46;;;;;;;1.95;0.90;;;15.50;1.00;;;;;;5062413;28;20048;-63
2021/05/19 11:15:48;;;;;;;1.17;0.80;;;15.30;1.00;;;;;;5061734;28;20057;-64
2021/05/19 11:21:44;;;;;;;3.63;1.00;;;15.10;1.00;;;;;;5052063;28;20559;-64
2021/05/19 11:24:48;;;;;;;0.77;0.70;;;15.00;1.00;;;;;;5056359;28;20045;-65
2021/05/19 11:27:37;;;;;;;1.60;0.80;;;15.10;1.00;;;;;;5053444;28;21207;-65
2021/05/19 11:30:27;;;;;;;2.40;0.90;;;15.20;1.00;;;;;;5047607;28;20040;-65
2021/05/19 11:33:20;;;;;;;2.22;0.70;;;15.50;1.00;;;;;;5060111;28;20515;-64
2021/05/19 11:36:08;;;;;;;2.50;0.88;;;15.50;1.00;;;;;;5057968;28;20103;-64
2021/05/19 11:38:56;;;;;;;2.15;1.02;;;15.60;1.00;;;;;;5058340;28;20509;-65
2021/05/19 11:41:44;;;;;;;1.75;1.00;;;15.60;1.00;;;;;;5051935;28;20040;-65
2021/05/19 11:44:34;;;;;;;5.50;1.23;;;15.50;1.00;;;;;;5063889;28;20080;-66
2021/05/19 11:47:24;;;;;;;5.90;1.30;;;16.00;1.00;;;;;;5057139;28;20501;-65
2021/05/19 11:50:16;;;;;;;3.40;0.90;;;15.60;1.00;;;;;;5061099;28;20048;-64
2021/05/19 11:53:09;;;;;;;2.42;0.70;;;16.10;1.00;;;;;;5063914;28;20059;-64
2021/05/19 11:55:57;;;;;;;3.00;1.17;;;16.10;1.00;;;;;;5060383;28;20075;-64
2021/05/19 11:58:46;;;;;;;2.92;1.38;;;15.80;1.00;;;;;;5054908;28;20515;-64
2021/05/19 12:01:33;;;;;;;1.13;0.80;;;16.00;1.00;;;;;;5060425;28;20247;-63
2021/05/19 12:04:22;;;;;;;2.63;0.90;;;15.80;1.00;;;;;;5060263;28;20052;-64
2021/05/19 12:07:14;;;;;;;3.17;1.30;;;16.10;1.00;;;;;;5057187;28;20883;-65
2021/05/19 12:10:08;;;;;;;1.25;0.70;;;16.10;1.00;;;;;;5066322;28;20054;-65
2021/05/19 12:12:57;;;;;;;1.95;0.88;;;16.20;1.00;;;;;;5059471;28;20891;-65
2021/05/19 12:15:49;;;;;;;1.38;0.90;;;16.70;1.00;;;;;;5057386;28;20172;-65
2021/05/19 12:18:38;;;;;;;2.33;0.77;;;16.60;1.00;;;;;;5058739;28;20405;-65
2021/05/19 12:21:26;;;;;;;2.60;1.13;;;17.20;1.00;;;;;;5060671;28;20044;-64
2021/05/19 12:24:18;;;;;;;4.82;0.90;;;17.30;1.00;;;;;;5065584;28;20044;-64
2021/05/19 12:27:08;;;;;;;1.50;0.98;;;17.00;1.00;;;;;;5056233;28;20044;-63
2021/05/19 12:30:02;;;;;;;1.73;0.80;;;16.70;1.00;;;;;;5057744;28;20036;-64
2021/05/19 12:33:00;;;;;;;6.70;1.13;;;17.10;1.00;;;;;;5044192;28;20266;-63
2021/05/19 12:35:49;;;;;;;2.65;1.17;;;16.80;1.00;;;;;;5062980;28;20559;-63
2021/05/19 12:38:48;;;;;;;2.40;0.93;;;16.90;1.00;;;;;;5061330;28;20063;-63
2021/05/19 12:41:43;;;;;;;2.00;0.98;;;16.30;1.00;;;;;;5063613;28;20086;-64
2021/05/19 12:44:32;;;;;;;2.60;0.95;;;17.00;1.00;;;;;;5052855;28;20056;-64
2021/05/19 12:47:23;;;;;;;2.60;0.80;;;16.40;1.00;;;;;;5054645;28;20360;-64
2021/05/19 12:50:11;;;;;;;2.53;0.90;;;16.50;1.00;;;;;;5058323;28;20136;-64
2021/05/19 12:52:59;;;;;;;2.17;1.20;;;16.80;1.00;;;;;;5048725;28;20481;-65
2021/05/19 12:55:47;;;;;;;4.07;1.30;;;16.40;1.00;;;;;;5053933;28;20068;-64
2021/05/19 12:58:54;;;;;;;4.43;0.95;;;15.70;1.00;;;;;;5052827;28;20056;-64
2021/05/19 13:01:43;;;;;;;3.20;1.20;;;16.40;1.00;;;;;;5043869;28;20048;-64
2021/05/19 13:04:31;;;;;;;1.98;1.00;;;17.40;1.00;;;;;;5058891;28;20119;-65
2021/05/19 13:07:22;;;;;;;1.92;0.88;;;16.80;1.00;;;;;;5059401;28;20826;-63
2021/05/19 13:10:15;;;;;;;4.40;1.10;;;16.80;1.00;;;;;;5058199;28;20131;-65
2021/05/19 13:13:29;;;;;;;3.67;1.10;;;16.60;1.00;;;;;;5056165;28;20052;-65
2021/05/19 13:16:19;;;;;;;5.63;0.80;;;17.80;1.00;;;;;;5054796;28;20098;-65
2021/05/19 13:19:08;;;;;;;5.00;0.93;;;17.30;1.00;;;;;;5057653;28;20049;-65
2021/05/19 13:21:56;;;;;;;3.92;1.20;;;18.00;1.00;;;;;;5063896;28;20166;-64
2021/05/19 13:24:44;;;;;;;3.90;1.10;;;17.60;1.00;;;;;;5060381;28;20511;-64
2021/05/19 13:27:33;;;;;;;1.20;0.70;;;17.60;1.00;;;;;;5055828;28;20079;-64
2021/05/19 13:30:27;;;;;;;1.90;1.00;;;16.90;1.00;;;;;;5056929;28;20068;-65
2021/05/19 13:33:32;;;;;;;3.17;1.60;;;17.70;1.00;;;;;;5058228;28;20048;-64
2021/05/19 13:36:35;;;;;;;;;;;18.10;1.00;;;;;;5055865;28;20052;-65
2021/05/19 13:39:26;;;;;;;2.80;0.90;;;18.20;1.00;;;;;;5059852;28;20285;-65
2021/05/19 13:42:14;;;;;;;2.40;0.90;;;17.60;1.00;;;;;;5059886;28;20087;-65
2021/05/19 13:45:03;;;;;;;2.72;0.93;;;17.90;1.00;;;;;;5057993;28;20130;-65
2021/05/19 13:47:51;;;;;;;3.33;1.10;;;18.00;1.00;;;;;;5026588;28;20041;-66
2021/05/19 13:50:40;;;;;;;3.80;1.10;;;18.10;1.00;;;;;;5049362;28;20522;-65
2021/05/19 13:53:28;;;;;;;1.77;0.70;;;17.50;1.00;;;;;;5059864;28;20041;-64
2021/05/19 13:56:16;;;;;;;2.90;1.08;;;18.10;1.00;;;;;;5056786;28;20064;-64
2021/05/19 13:59:04;;;;;;;2.78;1.00;;;18.00;1.00;;;;;;5054048;28;20048;-63
2021/05/19 14:01:52;;;;;;;1.73;0.90;;;17.40;1.00;;;;;;5057060;28;20063;-64
2021/05/19 14:04:40;;;;;;;2.25;1.20;;;17.40;1.00;;;;;;5061365;28;20041;-64
2021/05/19 14:07:29;;;;;;;2.35;0.90;;;17.70;1.00;;;;;;5056418;28;20130;-64
2021/05/19 14:10:18;;;;;;;4.57;1.40;;;17.30;1.00;;;;;;5056043;28;20053;-64
2021/05/19 14:13:09;;;;;;;2.58;0.80;;;17.40;1.00;;;;;;5064478;28;20040;-64
2021/05/19 14:16:05;;;;;;;2.10;0.95;;;17.10;1.00;;;;;;5058753;28;20049;-64
2021/05/19 14:28:22;;;;;;;4.05;0.90;;;15.80;1.00;;;;;;4994730;28;20506;-64
2021/05/19 14:31:10;;;;;;;3.35;1.08;;;15.10;1.00;;;;;;5058292;28;20051;-64
2021/05/19 14:33:58;;;;;;;1.65;1.05;;;15.10;1.00;;;;;;5054810;28;20501;-63
2021/05/19 14:37:06;;;;;;;3.25;0.98;;;14.90;1.00;;;;;;5053602;28;20055;-64
2021/05/19 15:01:41;;;;;;;2.83;0.70;;;14.50;1.00;;;;;;5060884;28;20047;-64
2021/05/19 15:04:29;;;;;;;1.73;0.75;;;14.00;1.00;;;;;;5058182;28;20055;-64
2021/05/19 15:07:17;;;;;;;1.30;0.55;;;13.80;1.00;;;;;;5053505;28;20048;-64
2021/05/19 15:10:07;;;;;;;3.15;0.77;;;14.30;1.00;;;;;;5053832;28;20052;-64
2021/05/19 15:12:56;;;;;;;2.90;0.70;;;14.40;1.00;;;;;;5060835;28;20505;-64
2021/05/19 15:15:44;;;;;;;1.02;0.60;;;14.20;1.00;;;;;;5060558;28;20064;-63
2021/05/19 15:18:34;;;;;;;2.03;0.70;;;14.50;1.00;;;;;;5055627;28;20044;-64
2021/05/19 15:21:22;;;;;;;1.52;0.50;;;14.40;1.00;;;;;;5057541;28;20056;-64
2021/05/19 15:24:10;;;;;;;3.15;0.68;;;14.20;1.00;;;;;;5056856;28;20556;-64
2021/05/19 15:26:58;;;;;;;2.45;0.70;;;14.70;1.00;;;;;;5056015;28;20044;-65
2021/05/19 15:29:46;;;;;;;1.90;0.90;;;14.80;1.00;;;;;;5058339;28;20056;-65
2021/05/19 15:32:35;;;;;;;2.22;0.88;;;15.20;1.00;;;;;;5060435;28;20099;-62
2021/05/19 15:35:23;;;;;;;2.25;0.57;;;15.10;1.00;;;;;;5067054;28;20048;-67